createdAt,value
2022-07-26T00:04:12.484Z,23.60
2022-07-26T00:09:15.228Z,23.50
2022-07-26T00:14:19.406Z,23.60
2022-07-26T00:20:27.713Z,23.40
2022-07-26T00:33:02.536Z,23.40
2022-07-26T00:44:22.143Z,23.30
2022-07-26T00:50:20.854Z,23.20
2022-07-26T01:15:00.784Z,23.20
2022-07-26T01:32:43.307Z,23.10
2022-07-26T01:38:01.272Z,22.70
2022-07-26T01:43:46.840Z,22.40
2022-07-26T01:49:33.062Z,22.50
2022-07-26T01:54:48.036Z,22.30
2022-07-26T02:00:07.459Z,22.00
2022-07-26T02:05:44.544Z,22.10
2022-07-26T02:11:31.256Z,22.20
2022-07-26T02:17:16.650Z,22.40
2022-07-26T02:29:38.138Z,22.10
2022-07-26T02:35:17.226Z,22.20
2022-07-26T02:40:59.779Z,22.10
2022-07-26T02:46:39.450Z,22.10
2022-07-26T02:58:15.470Z,22.20
2022-07-26T03:03:51.127Z,22.10
2022-07-26T03:09:13.755Z,22.20
2022-07-26T03:14:31.584Z,22.00
2022-07-26T03:19:57.299Z,21.90
2022-07-26T03:25:29.977Z,21.90
2022-07-26T03:31:10.180Z,22.10
2022-07-26T03:36:31.241Z,22.00
2022-07-26T03:41:55.169Z,22.00
2022-07-26T03:47:06.896Z,21.80
2022-07-26T03:52:59.308Z,21.70
2022-07-26T03:58:29.675Z,21.80
2022-07-26T04:03:48.001Z,21.70
2022-07-26T04:08:50.938Z,21.90
2022-07-26T04:13:55.061Z,21.90
2022-07-26T04:18:57.760Z,21.80
2022-07-26T04:24:00.528Z,21.90
2022-07-26T04:29:04.596Z,21.90
2022-07-26T04:34:07.604Z,21.90
2022-07-26T04:39:11.161Z,22.00
2022-07-26T04:44:15.237Z,22.10
2022-07-26T04:49:17.989Z,22.30
2022-07-26T04:54:22.802Z,22.30
2022-07-26T04:59:26.861Z,22.50
2022-07-26T05:04:29.636Z,22.60
2022-07-26T05:09:32.484Z,22.60
2022-07-26T05:14:37.477Z,22.80
2022-07-26T05:19:44.799Z,22.90
2022-07-26T05:24:50.225Z,23.00
2022-07-26T05:29:54.771Z,23.10
2022-07-26T05:34:57.466Z,23.20
2022-07-26T05:40:00.206Z,23.20
2022-07-26T05:45:04.924Z,23.30
2022-07-26T05:50:08.778Z,23.40
2022-07-26T05:55:11.550Z,23.50
2022-07-26T06:00:16.252Z,23.80
2022-07-26T06:05:19.062Z,24.00
2022-07-26T06:10:21.866Z,24.30
2022-07-26T06:15:25.918Z,24.60
2022-07-26T06:20:28.627Z,24.70
2022-07-26T06:25:31.316Z,24.70
2022-07-26T06:30:35.576Z,24.90
2022-07-26T06:35:39.455Z,25.20
2022-07-26T06:40:42.125Z,25.20
2022-07-26T06:45:46.235Z,25.20
2022-07-26T06:50:49.133Z,25.10
2022-07-26T06:55:51.858Z,25.20
2022-07-26T07:00:56.190Z,25.40
2022-07-26T07:05:58.933Z,24.90
2022-07-26T07:11:02.670Z,25.00
2022-07-26T07:16:09.509Z,25.40
2022-07-26T07:21:12.230Z,25.60
2022-07-26T07:26:14.935Z,25.80
2022-07-26T07:31:19.007Z,25.40
2022-07-26T07:36:22.242Z,25.40
2022-07-26T07:41:25.234Z,25.70
2022-07-26T07:46:29.293Z,26.00
2022-07-26T07:51:32.329Z,26.20
2022-07-26T07:56:35.437Z,26.30
2022-07-26T08:01:41.050Z,26.00
2022-07-26T08:06:51.070Z,26.00
2022-07-26T08:11:54.120Z,26.70
2022-07-26T08:16:58.375Z,27.10
2022-07-26T08:22:01.596Z,27.20
2022-07-26T08:27:04.476Z,26.50
2022-07-26T08:32:08.847Z,26.40
2022-07-26T08:37:18.813Z,27.00
2022-07-26T08:42:23.513Z,27.30
2022-07-26T08:47:36.238Z,26.40
2022-07-26T08:52:44.168Z,25.70
2022-07-26T08:57:47.231Z,25.50
2022-07-26T09:02:51.269Z,25.70
2022-07-26T09:07:54.037Z,26.40
2022-07-26T09:12:57.978Z,26.90
2022-07-26T09:18:02.175Z,27.30
2022-07-26T09:23:08.058Z,27.60
2022-07-26T09:28:23.198Z,29.40
2022-07-26T09:33:27.714Z,32.30
2022-07-26T09:38:40.483Z,35.10
2022-07-26T09:43:43.215Z,34.30
2022-07-26T09:54:12.249Z,30.60
2022-07-26T09:59:16.752Z,30.70
2022-07-26T10:04:21.796Z,32.40
2022-07-26T10:09:25.378Z,35.40
2022-07-26T10:14:36.338Z,31.80
2022-07-26T10:19:41.761Z,29.80
2022-07-26T10:24:48.037Z,29.60
2022-07-26T10:29:50.756Z,34.30
2022-07-26T10:34:54.787Z,39.20
2022-07-26T10:40:22.642Z,38.90
2022-07-26T10:45:25.492Z,35.10
2022-07-26T10:50:34.774Z,34.10
2022-07-26T10:55:51.699Z,36.50
2022-07-26T11:00:59.986Z,36.90
2022-07-26T11:06:12.338Z,38.90
2022-07-26T11:11:27.492Z,38.50
2022-07-26T11:16:38.005Z,35.20
2022-07-26T11:21:42.189Z,36.00
2022-07-26T11:26:47.239Z,35.70
2022-07-26T11:31:58.650Z,39.60
2022-07-26T11:37:07.010Z,39.70
2022-07-26T11:42:11.613Z,35.80
2022-07-26T11:47:16.105Z,33.00
2022-07-26T11:52:25.030Z,33.10
2022-07-26T11:57:30.450Z,38.70
2022-07-26T12:02:33.512Z,42.10
2022-07-26T12:07:37.918Z,42.90
2022-07-26T12:12:40.834Z,38.10
2022-07-26T12:17:59.349Z,40.70
2022-07-26T12:23:05.929Z,41.00
2022-07-26T12:28:08.680Z,37.80
2022-07-26T12:33:11.414Z,40.00
2022-07-26T12:38:15.517Z,41.50
2022-07-26T12:43:18.223Z,41.90
2022-07-26T12:48:20.929Z,42.20
2022-07-26T12:53:25.013Z,43.60
2022-07-26T12:58:28.025Z,43.80
2022-07-26T13:03:30.817Z,44.10
2022-07-26T13:08:34.966Z,43.70
2022-07-26T13:13:37.767Z,40.60
2022-07-26T13:18:40.590Z,39.90
2022-07-26T13:23:44.774Z,36.80
2022-07-26T13:28:49.936Z,34.00
2022-07-26T13:33:52.930Z,31.80
2022-07-26T13:38:56.974Z,30.30
2022-07-26T13:43:59.855Z,30.70
2022-07-26T13:49:04.820Z,30.90
2022-07-26T13:54:09.086Z,30.40
2022-07-26T13:59:12.692Z,30.80
2022-07-26T14:04:15.942Z,31.00
2022-07-26T14:09:21.763Z,30.80
2022-07-26T14:14:24.728Z,30.70
2022-07-26T14:19:27.467Z,33.80
2022-07-26T14:24:31.775Z,33.90
2022-07-26T14:29:34.510Z,31.60
2022-07-26T14:34:37.245Z,31.10
2022-07-26T14:39:41.405Z,31.50
2022-07-26T14:44:44.655Z,30.50
2022-07-26T14:49:47.677Z,30.30
2022-07-26T14:54:51.746Z,30.40
2022-07-26T14:59:54.508Z,30.80
2022-07-26T15:04:58.211Z,31.60
2022-07-26T15:10:02.470Z,30.60
2022-07-26T15:15:06.767Z,30.00
2022-07-26T15:20:09.795Z,29.90
2022-07-26T15:25:14.077Z,29.30
2022-07-26T15:30:17.283Z,29.20
2022-07-26T15:35:21.308Z,29.00
2022-07-26T15:40:25.770Z,29.20
2022-07-26T15:45:30.125Z,29.60
2022-07-26T15:50:37.369Z,29.30
2022-07-26T15:55:41.811Z,28.70
2022-07-26T16:00:44.579Z,28.60
2022-07-26T16:05:47.907Z,28.80
2022-07-26T16:10:51.948Z,29.30
2022-07-26T16:15:55.194Z,29.50
2022-07-26T16:20:58.152Z,29.50
2022-07-26T16:26:02.307Z,29.10
2022-07-26T16:31:05.352Z,28.90
2022-07-26T16:36:18.947Z,29.70
2022-07-26T16:41:23.175Z,29.60
2022-07-26T16:46:26.423Z,29.10
2022-07-26T16:51:32.360Z,28.40
2022-07-26T16:56:38.955Z,27.90
2022-07-26T17:01:44.830Z,27.50
2022-07-26T17:07:07.781Z,27.20
2022-07-26T17:12:15.471Z,27.00
2022-07-26T17:17:24.212Z,26.90
2022-07-26T17:22:26.990Z,26.70
2022-07-26T17:27:41.284Z,26.40
2022-07-26T17:32:57.627Z,26.30
2022-07-26T17:38:03.320Z,26.30
2022-07-26T17:43:12.775Z,26.00
2022-07-26T17:48:16.118Z,25.70
2022-07-26T17:53:34.051Z,25.40
2022-07-26T17:58:41.869Z,24.90
2022-07-26T18:03:47.541Z,24.60
2022-07-26T18:08:54.101Z,24.50
2022-07-26T18:13:59.832Z,24.50
2022-07-26T18:19:02.588Z,24.90
2022-07-26T18:24:16.966Z,24.90
2022-07-26T18:29:21.623Z,24.80
2022-07-26T18:34:24.285Z,24.80
2022-07-26T18:39:32.829Z,24.40
2022-07-26T18:44:38.127Z,24.10
2022-07-26T18:49:40.882Z,23.80
2022-07-26T18:54:45.440Z,23.60
2022-07-26T18:59:49.816Z,23.40
2022-07-26T19:04:52.544Z,23.10
2022-07-26T19:09:58.661Z,23.00
2022-07-26T19:15:02.985Z,22.70
2022-07-26T19:20:07.592Z,22.70
2022-07-26T19:25:10.872Z,22.60
2022-07-26T19:30:15.184Z,22.30
2022-07-26T19:35:17.838Z,22.30
2022-07-26T19:40:20.594Z,22.00
2022-07-26T19:45:24.863Z,21.90
2022-07-26T19:50:27.589Z,21.80
2022-07-26T19:55:30.257Z,21.70
2022-07-26T20:00:34.284Z,21.70
2022-07-26T20:05:36.977Z,21.60
2022-07-26T20:10:39.764Z,21.70
2022-07-26T20:15:44.054Z,21.50
2022-07-26T20:20:46.719Z,21.30
2022-07-26T20:25:49.631Z,21.30
2022-07-26T20:30:55.002Z,21.20
2022-07-26T20:35:57.785Z,21.10
2022-07-26T20:41:01.429Z,21.10
2022-07-26T20:46:07.719Z,21.00
2022-07-26T20:51:13.589Z,21.00
2022-07-26T20:56:16.583Z,20.90
2022-07-26T21:01:20.617Z,21.00
2022-07-26T21:06:23.408Z,20.90
2022-07-26T21:11:28.502Z,20.80
2022-07-26T21:16:33.191Z,20.80
2022-07-26T21:21:37.188Z,20.90
2022-07-26T21:26:40.033Z,20.80
2022-07-26T21:31:44.052Z,20.70
2022-07-26T21:36:46.863Z,20.80
2022-07-26T21:41:50.522Z,20.80
2022-07-26T21:46:54.988Z,20.80
2022-07-26T21:51:58.112Z,20.80
2022-07-26T21:57:00.808Z,20.70
2022-07-26T22:02:04.844Z,20.80
2022-07-26T22:07:07.608Z,20.70
2022-07-26T22:12:11.192Z,20.60
2022-07-26T22:17:25.014Z,20.60
2022-07-26T22:22:27.757Z,20.60
2022-07-26T22:27:30.464Z,20.50
2022-07-26T22:32:34.518Z,20.40
2022-07-26T22:37:37.439Z,20.60
2022-07-26T22:42:40.127Z,20.60
2022-07-26T22:47:56.410Z,20.70
2022-07-26T22:53:00.868Z,20.60
2022-07-26T22:58:03.751Z,20.50
2022-07-26T23:03:15.235Z,20.70
2022-07-26T23:08:45.662Z,20.70
2022-07-26T23:13:45.844Z,20.60
2022-07-26T23:18:49.828Z,20.60
2022-07-26T23:23:52.596Z,20.70
2022-07-26T23:28:55.363Z,20.80
2022-07-26T23:33:59.385Z,20.90
2022-07-26T23:39:02.098Z,21.00
2022-07-26T23:44:04.999Z,20.90
2022-07-26T23:49:09.510Z,20.80
2022-07-26T23:54:12.481Z,20.90
2022-07-26T23:59:15.665Z,20.80
